TAM8002 SBGL-SABE
Flight info
| Callsign | TAM8002 |
|---|---|
| Flight time | N/A |
| Altitude | 32000 |
| Route | BITAK UN857 NELOX UM534 DADUT UN741 PAPIX PAPIX2R |
| Aircraft | A321/M-SDE3FGHIRWY/LB1 |
Departure
| Time | N/A |
|---|---|
| Airport | Rio Galeão – Tom Jobim International Airport (SBGL) |
Arrival
| Time | 2026-04-30 18:22 |
|---|---|
| Airport | Aeroparque Jorge Newbery (SABE) |
| Time | Latitude | Longitude | Altitude | Speed | Heading |
|---|---|---|---|---|---|
| 2026-04-30 17:39 | -31.94580 | -55.18950 | 34098 ft | 448 kts | 229° |
| 2026-04-30 17:42 | -32.17296 | -55.43837 | 34092 ft | 446 kts | 230° |
| 2026-04-30 17:43 | -32.28612 | -55.56292 | 34102 ft | 446 kts | 230° |
| 2026-04-30 17:44 | -32.42240 | -55.71329 | 34093 ft | 445 kts | 230° |
| 2026-04-30 17:47 | -32.62526 | -55.93873 | 34094 ft | 445 kts | 230° |
| 2026-04-30 17:48 | -32.78293 | -56.11474 | 34085 ft | 443 kts | 230° |
| 2026-04-30 17:50 | -32.96214 | -56.31616 | 34096 ft | 443 kts | 230° |
| 2026-04-30 17:52 | -33.09568 | -56.46755 | 34076 ft | 441 kts | 231° |
| 2026-04-30 17:54 | -33.29555 | -56.69533 | 34080 ft | 442 kts | 231° |
| 2026-04-30 17:56 | -33.47275 | -56.89833 | 34072 ft | 440 kts | 231° |
| 2026-04-30 17:58 | -33.60491 | -57.05071 | 34061 ft | 440 kts | 231° |
| 2026-04-30 18:00 | -33.77845 | -57.25139 | 34033 ft | 421 kts | 232° |
| 2026-04-30 18:00 | -33.84141 | -57.32474 | 33469 ft | 421 kts | 232° |
| 2026-04-30 18:01 | -33.88332 | -57.37358 | 32933 ft | 422 kts | 231° |
| 2026-04-30 18:02 | -33.94658 | -57.44750 | 32186 ft | 424 kts | 231° |
| 2026-04-30 18:02 | -34.01017 | -57.52198 | 31437 ft | 426 kts | 231° |
| 2026-04-30 18:03 | -34.07421 | -57.59677 | 30726 ft | 425 kts | 231° |
| 2026-04-30 18:04 | -34.13757 | -57.67136 | 29410 ft | 430 kts | 231° |
| 2026-04-30 18:05 | -34.22238 | -57.77087 | 26993 ft | 416 kts | 231° |
| 2026-04-30 18:06 | -34.30339 | -57.86668 | 24872 ft | 399 kts | 231° |
| 2026-04-30 18:07 | -34.37492 | -57.95147 | 22966 ft | 387 kts | 231° |
| 2026-04-30 18:08 | -34.42687 | -58.03398 | 21414 ft | 358 kts | 250° |
| 2026-04-30 18:09 | -34.45908 | -58.13480 | 19885 ft | 343 kts | 256° |
| 2026-04-30 18:10 | -34.43124 | -58.24069 | 17574 ft | 325 kts | 300° |
| 2026-04-30 18:11 | -34.38375 | -58.32737 | 14403 ft | 300 kts | 301° |
| 2026-04-30 18:11 | -34.35031 | -58.39068 | 11791 ft | 294 kts | 301° |
| 2026-04-30 18:12 | -34.32029 | -58.44984 | 10340 ft | 262 kts | 301° |
| 2026-04-30 18:13 | -34.30173 | -58.48742 | 9091 ft | 257 kts | 301° |
| 2026-04-30 18:13 | -34.27486 | -58.54415 | 7008 ft | 259 kts | 301° |
| 2026-04-30 18:14 | -34.26835 | -58.58619 | 6068 ft | 265 kts | 258° |
| 2026-04-30 18:15 | -34.28811 | -58.64938 | 5007 ft | 267 kts | 251° |
| 2026-04-30 18:15 | -34.31287 | -58.70554 | 4980 ft | 245 kts | 220° |
| 2026-04-30 18:16 | -34.34506 | -58.71749 | 4966 ft | 250 kts | 175° |
| 2026-04-30 18:16 | -34.37554 | -58.69906 | 4969 ft | 251 kts | 133° |
| 2026-04-30 18:17 | -34.38763 | -58.68375 | 4972 ft | 251 kts | 133° |
| 2026-04-30 18:17 | -34.39963 | -58.66869 | 4971 ft | 251 kts | 133° |
| 2026-04-30 18:17 | -34.42387 | -58.63846 | 4950 ft | 246 kts | 133° |
| 2026-04-30 18:18 | -34.43580 | -58.62363 | 4748 ft | 243 kts | 133° |
| 2026-04-30 18:18 | -34.44724 | -58.60943 | 4625 ft | 226 kts | 133° |
| 2026-04-30 18:18 | -34.45780 | -58.59622 | 4475 ft | 210 kts | 131° |
| 2026-04-30 18:18 | -34.46624 | -58.58214 | 4035 ft | 210 kts | 122° |
| 2026-04-30 18:19 | -34.47434 | -58.56757 | 3805 ft | 202 kts | 122° |
| 2026-04-30 18:19 | -34.48209 | -58.55372 | 3536 ft | 194 kts | 122° |
| 2026-04-30 18:19 | -34.48950 | -58.54049 | 3269 ft | 186 kts | 122° |
| 2026-04-30 18:19 | -34.49676 | -58.52778 | 2995 ft | 181 kts | 123° |
| 2026-04-30 18:20 | -34.50405 | -58.51537 | 2672 ft | 179 kts | 121° |
| 2026-04-30 18:20 | -34.51098 | -58.50316 | 2389 ft | 171 kts | 120° |
| 2026-04-30 18:20 | -34.51714 | -58.49109 | 2016 ft | 166 kts | 117° |
| 2026-04-30 18:20 | -34.52340 | -58.47941 | 1587 ft | 168 kts | 119° |
| 2026-04-30 18:21 | -34.53015 | -58.46757 | 1153 ft | 169 kts | 123° |
| 2026-04-30 18:21 | -34.53688 | -58.45605 | 695 ft | 164 kts | 121° |
| 2026-04-30 18:21 | -34.54318 | -58.44451 | 410 ft | 161 kts | 124° |
| 2026-04-30 18:21 | -34.54930 | -58.43355 | 177 ft | 155 kts | 123° |
| 2026-04-30 18:22 | -34.55522 | -58.42278 | 32 ft | 149 kts | 121° |
| 2026-04-30 18:22 | -34.56189 | -58.41081 | 28 ft | 19 kts | 103° |
| 2026-04-30 18:22 | -34.56134 | -58.40980 | 27 ft | 13 kts | 359° |
| 2026-04-30 18:23 | -34.56069 | -58.41062 | 27 ft | 14 kts | 306° |
| 2026-04-30 18:23 | -34.56008 | -58.41159 | 27 ft | 15 kts | 307° |
| 2026-04-30 18:23 | -34.55960 | -58.41236 | 27 ft | 12 kts | 305° |
| 2026-04-30 18:23 | -34.55905 | -58.41300 | 27 ft | 10 kts | 342° |
| 2026-04-30 18:24 | -34.55780 | -58.41333 | 27 ft | 9 kts | 33° |
| 2026-04-30 18:24 | -34.55765 | -58.41321 | 27 ft | 0 kts | 33° |